Flight Track Log - Related Links

Times and Time Zones

All times are in EDT time to prevent confusion due to time zone crossing. See the N137TK flight status page for this flight to view local times or setup timezone preferences in your user account.

Time Position Orientation Groundspeed Altitude Reporting Facility
EDT Latitude Longitude Course Direction KTS MPH feet Rate Location/Type
Tue 23:01:32 42.6656 -83.3956 98° East 140 161 1,600  Level Cleveland Center
Tue 23:02:09 42.6622 -83.3644 98° East 142 163 2,900 1,979 Climbing Cleveland Center
Tue 23:03:09 42.6361 -83.3208 129° Southeast 152 175 4,800 1,930 Climbing Cleveland Center
Tue 23:04:04 42.6100 -83.2775 129° Southeast 158 182 6,600 1,983 Climbing Cleveland Center
Tue 23:05:04 42.5839 -83.2311 127° Southeast 158 182 8,600 1,902 Climbing Cleveland Center
Tue 23:06:07 42.5406 -83.2181 167° South 156 180 10,500 1,854 Climbing Cleveland Center
Tue 23:07:07 42.4986 -83.2219 184° South 156 180 12,400 1,650 Climbing Cleveland Center
Tue 23:08:07 42.4506 -83.2311 188° South 161 185 13,800 1,350 Climbing Cleveland Center
Tue 23:09:07 42.4067 -83.2350 184° South 177 204 15,100 1,500 Climbing Cleveland Center
Tue 23:10:07 42.3586 -83.2414 186° South 188 216 16,800 1,400 Climbing Cleveland Center
Tue 23:11:07 42.3064 -83.2506 187° South 174 200 17,900 1,150 Climbing Cleveland Center
Tue 23:12:07 42.2622 -83.2569 186° South 174 200 19,100 1,050 Climbing Cleveland Center
Tue 23:13:07 42.2142 -83.2633 186° South 174 200 20,000 450 Climbing Cleveland Center
Tue 23:14:07 42.1597 -83.2722 187° South 189 217 20,000  Level Cleveland Center
Tue 23:15:07 42.0992 -83.2808 186° South 214 246 20,000  Level Cleveland Center
Tue 23:16:07 42.0400 -83.3147 203° Southwest 226 260 20,000  Level Cleveland Center
Tue 23:17:07 41.9844 -83.3656 214° Southwest 235 270 20,000  Level Cleveland Center
Tue 23:18:07 41.9292 -83.4106 211° Southwest 242 278 20,000  Level Cleveland Center
Tue 23:19:07 41.8781 -83.4528 212° Southwest 242 278 20,000  Level Cleveland Center
Tue 23:20:07 41.8247 -83.5036 215° Southwest 242 278 20,000  Level Cleveland Center
Tue 23:21:07 41.7694 -83.5483 211° Southwest 242 278 20,000  Level Cleveland Center
Tue 23:22:07 41.7100 -83.5844 204° Southwest 242 278 20,000  Level Cleveland Center
Tue 23:23:07 41.6450 -83.6008 191° South 242 278 20,000  Level Cleveland Center
Tue 23:24:07 41.5808 -83.5869 171° South 234 269 20,000  Level Cleveland Center
Tue 23:25:07 41.5122 -83.5725 171° South 234 269 20,000  Level Cleveland Center
Tue 23:26:07 41.4481 -83.5611 172° South 239 275 20,000  Level Cleveland Center
Tue 23:27:07 41.3794 -83.5469 171° South 239 275 20,000  Level Cleveland Center
Tue 23:28:07 41.3131 -83.5383 174° South 244 281 20,000  Level Cleveland Center
Tue 23:29:07 41.2447 -83.5217 170° South 244 281 20,000  Level Cleveland Center
Tue 23:31:32 41.0847 -83.4928 172° South 246 283 20,000  Level Indianapolis Center
Tue 23:32:33 41.0178 -83.4800 172° South 242 278 20,000  Level Indianapolis Center
Tue 23:33:34 40.9494 -83.4678 172° South 245 282 20,000  Level Indianapolis Center
Tue 23:34:35 40.8814 -83.4561 173° South 245 282 20,000  Level Indianapolis Center
Tue 23:35:36 40.8036 -83.4414 172° South 242 278 20,000  Level Indianapolis Center
Tue 23:36:38 40.7347 -83.4314 174° South 246 283 20,000  Level Indianapolis Center
Tue 23:37:38 40.6669 -83.4186 172° South 245 282 20,000  Level Indianapolis Center
Tue 23:38:39 40.5981 -83.4050 171° South 246 283 20,000  Level Indianapolis Center
Tue 23:39:40 40.5283 -83.3936 173° South 249 287 20,000  Level Indianapolis Center
Tue 23:40:41 40.4589 -83.3808 172° South 249 287 20,000  Level Indianapolis Center
Tue 23:41:42 40.3900 -83.3683 172° South 249 287 20,000  Level Indianapolis Center
Tue 23:42:43 40.3206 -83.3558 172° South 249 287 20,000  Level Indianapolis Center
Tue 23:43:44 40.2514 -83.3439 172° South 249 287 20,000  Level Indianapolis Center
Tue 23:44:45 40.1831 -83.3306 172° South 246 283 20,000  Level Indianapolis Center
Tue 23:45:46 40.1136 -83.3189 173° South 247 284 20,000  Level Indianapolis Center
Tue 23:46:48 40.0442 -83.3067 172° South 249 287 20,000  Level Indianapolis Center
Tue 23:47:49 39.9756 -83.2933 172° South 246 283 20,000  Level Indianapolis Center
Tue 23:48:50 39.9056 -83.2819 173° South 248 285 20,000  Level Indianapolis Center
Tue 23:49:51 39.8364 -83.2689 172° South 247 284 20,000  Level Indianapolis Center
Tue 23:50:52 39.7664 -83.2572 173° South 248 285 20,000  Level Indianapolis Center
Tue 23:51:53 39.6969 -83.2456 173° South 248 285 20,000  Level Indianapolis Center
Tue 23:52:54 39.6269 -83.2331 172° South 251 289 20,000  Level Indianapolis Center
Tue 23:53:54 39.5572 -83.2211 172° South 249 287 20,000  Level Indianapolis Center
Tue 23:54:55 39.4881 -83.2092 172° South 249 287 20,000  Level Indianapolis Center
Tue 23:55:56 39.4200 -83.1972 172° South 245 282 20,000  Level Indianapolis Center
Tue 23:56:57 39.3514 -83.1847 172° South 246 283 20,000  Level Indianapolis Center
Tue 23:57:58 39.2825 -83.1739 173° South 246 283 20,000  Level Indianapolis Center
Tue 23:58:59 39.2133 -83.1608 172° South 249 287 20,000  Level Indianapolis Center
Wed 00:00:00 39.1406 -83.1494 173° South 244 281 20,000  Level Indianapolis Center
Wed 00:01:01 39.0717 -83.1369 172° South 248 285 20,000  Level Indianapolis Center
Wed 00:02:01 39.0031 -83.1244 172° South 250 288 20,000  Level Indianapolis Center
Wed 00:03:02 38.9336 -83.1131 173° South 250 288 20,000  Level Indianapolis Center
Wed 00:04:03 38.8642 -83.1017 173° South 251 289 20,000  Level Indianapolis Center
Wed 00:05:04 38.7958 -83.0892 172° South 250 288 20,000  Level Indianapolis Center
Wed 00:06:05 38.7267 -83.0769 172° South 251 289 20,000  Level Indianapolis Center
Wed 00:07:06 38.6586 -83.0658 173° South 247 284 20,000  Level Indianapolis Center
Wed 00:08:06 38.5850 -83.0533 172° South 248 285 20,000  Level Indianapolis Center
Wed 00:09:07 38.5164 -83.0414 172° South 247 284 20,000  Level Indianapolis Center
Wed 00:10:08 38.4481 -83.0300 173° South 248 285 20,000  Level Indianapolis Center
Wed 00:11:09 38.3803 -83.0194 173° South 246 283 20,000  Level Indianapolis Center
Wed 00:12:10 38.3117 -83.0069 172° South 248 285 20,000  Level Indianapolis Center
Wed 00:13:10 38.2439 -82.9953 172° South 246 283 20,000  Level Indianapolis Center
Wed 00:14:11 38.1756 -82.9836 172° South 247 284 20,000  Level Indianapolis Center
Wed 00:15:12 38.1075 -82.9736 173° South 247 284 20,000  Level Indianapolis Center
Wed 00:16:13 38.0394 -82.9617 172° South 246 283 20,000  Level Indianapolis Center
Wed 00:17:14 37.9719 -82.9514 173° South 244 281 20,000  Level Indianapolis Center
Wed 00:18:14 37.9042 -82.9397 172° South 244 281 20,000  Level Indianapolis Center
Wed 00:19:15 37.8242 -82.9253 172° South 248 285 20,000  Level Indianapolis Center
Wed 00:20:16 37.7561 -82.9147 173° South 246 283 20,000  Level Indianapolis Center
Wed 00:21:16 37.6889 -82.9022 172° South 245 282 20,000  Level Indianapolis Center
Wed 00:22:17 37.6206 -82.8919 173° South 246 283 20,000  Level Indianapolis Center
Wed 00:23:18 37.5519 -82.8811 173° South 247 284 20,000  Level Indianapolis Center
Wed 00:24:19 37.4844 -82.8700 173° South 245 282 20,000  Level Indianapolis Center
Wed 00:25:19 37.4156 -82.8594 173° South 247 284 20,000  Level Indianapolis Center
Wed 00:26:20 37.3472 -82.8475 172° South 247 284 20,000  Level Indianapolis Center
Wed 00:27:20 37.2792 -82.8367 173° South 246 283 20,000  Level Indianapolis Center
Wed 00:28:21 37.2106 -82.8250 172° South 247 284 20,000  Level Indianapolis Center
Wed 00:29:22 37.1408 -82.8136 173° South 250 288 20,000  Level Indianapolis Center
Wed 00:30:22 37.0719 -82.8022 172° South 249 287 20,000  Level Indianapolis Center
Wed 00:31:23 37.0025 -82.7903 172° South 249 287 20,000  Level Indianapolis Center
Wed 00:32:23 36.9314 -82.7789 173° South 251 289 20,000  Level Indianapolis Center
Wed 00:33:24 36.8600 -82.7669 172° South 253 291 20,000  Level Indianapolis Center
Wed 00:34:25 36.7892 -82.7558 173° South 254 292 20,000  Level Indianapolis Center
Wed 00:36:00 36.6858 -82.7409 173° South  Level FlightAware
Wed 00:43:00 36.2299 -82.6661 172° South  Level FlightAware
Wed 00:44:00 36.1648 -82.6552 172° South  Level FlightAware
Wed 00:45:00 36.0997 -82.6458 169° South  Level FlightAware
Wed 00:46:00 36.0353 -82.6296 169° South  Level FlightAware
Wed 00:47:00 35.9707 -82.6167 180° South  Level FlightAware
Wed 00:48:00 35.9054 -82.6092 172° South  Level FlightAware
Wed 00:49:00 35.8403 -82.5984 172° South  Level FlightAware
Wed 00:50:00 35.7752 -82.5875 172° South  Level FlightAware
Wed 00:51:00 35.7103 -82.5754 171° South  Level FlightAware
Wed 00:52:00 35.6454 -82.5624 171° South  Level FlightAware
Wed 00:53:00 35.5805 -82.5500 180° South  Level FlightAware
Wed 00:54:00 35.5148 -82.5500 180° South  Level FlightAware
Wed 00:55:00 35.4502 -82.5375 168° South  Level FlightAware
Wed 00:56:00 35.4333 -82.5333 168° South  Level FlightAware
Wed 00:57:00 35.4362 -82.5418 168° South  Level Estimated
Wed 00:58:00 35.4362 -82.5418 168° South  Level Estimated
Wed 00:59:00 35.4362 -82.5418 168° South  Level Estimated
Wed 01:00:00 35.4362 -82.5418 168° South  Level Estimated
Wed 01:01:00 35.4362 -82.5418 168° South  Level Estimated
Wed 01:02:00 35.4362 -82.5418 168° South  Level Estimated
Wed 01:03:00 35.4362 -82.5418 168° South  Level Estimated
Wed 01:04:00 35.4362 -82.5418 168° South  Level Estimated
Wed 01:05:00 35.4362 -82.5418 168° South  Level Estimated
Wed 01:06:00 35.4362 -82.5418 168° South  Level Estimated
Wed 01:07:00 35.4362 -82.5418 168° South  Level Estimated
Wed 01:08:00 35.4362 -82.5418 168° South  Level Estimated
Wed 01:09:00 35.4362 -82.5418 168° South  Level Estimated
Wed 01:10:00 35.4362 -82.5418 168° South  Level Estimated
Wed 01:11:00 35.4362 -82.5418 168° South  Level Estimated

Login

Don't have an account? Register now (free) for customized features, flight alerts, and more!